Time;durP1;ratioP1;P1;durP2;ratioP2;P2;SDS_P1;SDS_P2;PMS_P1;PMS_P2;Temp;Humidity;BMP_temperature;BMP_pressure;BME280_temperature;BME280_humidity;BME280_pressure;Samples;Min_cycle;Max_cycle;Signal;HPM_P1;HPM_P2
2023/10/25 02:40:18;;;;;;;10.07;3.22;;;;;;;18.48;52.25;100341.16;5539896;24;20660;-91
2023/10/25 02:43:10;;;;;;;5.50;2.07;;;;;;;18.46;52.37;100330.66;4781790;24;20466;-96
2023/10/25 02:45:39;;;;;;;1.30;0.30;;;;;;;18.49;52.10;100321.28;4760718;30;20489;-96
2023/10/25 02:48:13;;;;;;;0.50;0.40;;;;;;;18.39;52.50;100304.97;4743426;30;20437;-96
2023/10/25 02:50:42;;;;;;;0.15;0.15;;;;;;;18.40;52.54;100307.44;4718240;30;20413;-96
2023/10/25 02:53:22;;;;;;;0.25;0.25;;;;;;;18.36;52.63;100283.97;4752428;30;20436;-95
2023/10/25 02:56:01;;;;;;;0.35;0.35;;;;;;;18.36;52.64;100297.38;4753661;30;20509;-96
2023/10/25 02:58:31;;;;;;;7.25;1.05;;;;;;;18.33;52.78;100290.63;4760090;30;20495;-96
2023/10/25 03:00:58;;;;;;;0.20;0.20;;;;;;;18.34;52.57;100276.94;4753702;30;20429;-96
2023/10/25 03:03:54;;;;;;;1.10;1.00;;;;;;;18.25;52.81;100270.28;4754828;30;20429;-96
2023/10/25 03:06:32;;;;;;;0.50;0.30;;;;;;;18.24;52.91;100268.66;4745584;30;20483;-96
2023/10/25 03:29:55;;;;;;;0.10;0.10;;;;;;;17.88;54.50;100297.28;4769368;30;20458;-90
2023/10/25 03:32:23;;;;;;;0.20;0.20;;;;;;;17.97;54.02;100281.69;4738321;30;20433;-90
2023/10/25 03:34:59;;;;;;;0.30;0.30;;;;;;;18.04;53.85;100293.13;4755562;30;20434;-90
2023/10/25 03:37:26;;;;;;;0.30;0.30;;;;;;;18.03;53.75;100291.47;4707077;30;20461;-90
2023/10/25 03:39:55;;;;;;;0.40;0.40;;;;;;;17.94;53.99;100288.31;4705056;30;20815;-90
2023/10/25 03:42:21;;;;;;;0.10;0.10;;;;;;;18.01;53.97;100295.47;4694107;30;20438;-90
2023/10/25 03:44:46;;;;;;;0.40;0.40;;;;;;;17.99;53.96;100302.88;4709627;30;21280;-89
2023/10/25 03:47:12;;;;;;;0.10;0.10;;;;;;;18.04;53.81;100303.84;4719589;30;20429;-91
2023/10/25 03:49:38;;;;;;;0.13;0.13;;;;;;;18.03;53.99;100304.91;4736781;30;20435;-89
2023/10/25 03:52:14;;;;;;;0.20;0.20;;;;;;;18.03;53.80;100301.41;4727571;30;20467;-88
2023/10/25 03:54:44;;;;;;;0.10;0.10;;;;;;;18.07;53.89;100302.56;4722948;30;20429;-92
2023/10/25 03:57:21;;;;;;;0.20;0.20;;;;;;;18.06;53.56;100300.91;4727783;30;20429;-91
2023/10/25 03:59:49;;;;;;;0.10;0.10;;;;;;;18.10;53.48;100305.59;4709383;30;20447;-90
2023/10/25 04:02:17;;;;;;;0.50;0.50;;;;;;;18.09;53.48;100293.22;4715853;30;20425;-91
2023/10/25 04:04:57;;;;;;;0.10;0.10;;;;;;;18.11;53.25;100293.84;4700942;30;20444;-91
2023/10/25 04:07:26;;;;;;;0.10;0.10;;;;;;;18.10;53.53;100294.88;4690820;30;20428;-91
2023/10/25 04:09:55;;;;;;;0.20;0.20;;;;;;;18.10;53.31;100305.59;4687528;30;21013;-90
2023/10/25 04:12:21;;;;;;;0.40;0.40;;;;;;;17.89;53.79;100300.78;4657835;30;20416;-84
2023/10/25 04:14:47;;;;;;;0.20;0.20;;;;;;;17.70;54.36;100282.03;4701908;30;20420;-87
2023/10/25 04:17:15;;;;;;;0.10;0.10;;;;;;;17.80;54.10;100278.78;4683778;30;20423;-86
2023/10/25 04:19:51;;;;;;;0.22;0.22;;;;;;;17.85;54.01;100270.06;4683114;30;20440;-85
2023/10/25 04:22:19;;;;;;;0.10;0.10;;;;;;;17.81;53.97;100268.88;4671225;30;20426;-84
2023/10/25 04:24:46;;;;;;;0.17;0.17;;;;;;;17.75;54.13;100258.03;4713928;30;21142;-84
2023/10/25 04:27:12;;;;;;;0.10;0.10;;;;;;;17.80;54.00;100264.56;4699675;30;20439;-84
2023/10/25 04:29:40;;;;;;;0.10;0.10;;;;;;;17.83;53.80;100262.25;4700027;30;20828;-84
2023/10/25 04:32:10;;;;;;;0.30;0.30;;;;;;;17.87;53.80;100254.59;4731137;30;20489;-86
2023/10/25 04:34:37;;;;;;;1.30;0.50;;;;;;;17.55;54.79;100266.34;4702342;30;20515;-85
2023/10/25 04:37:04;;;;;;;0.30;0.20;;;;;;;17.16;55.89;100273.03;4733676;30;20551;-85
2023/10/25 04:39:40;;;;;;;0.28;0.28;;;;;;;17.17;55.96;100262.09;4721707;30;20432;-90
2023/10/25 04:42:08;;;;;;;0.20;0.20;;;;;;;17.16;55.74;100263.16;4719730;30;20539;-87
2023/10/25 04:44:36;;;;;;;0.10;0.10;;;;;;;17.30;55.48;100260.28;4733345;30;20418;-85
2023/10/25 04:47:05;;;;;;;0.30;0.30;;;;;;;17.41;54.92;100250.66;4700496;30;20450;-85
2023/10/25 04:49:53;;;;;;;0.10;0.10;;;;;;;17.42;54.77;100239.72;4691144;30;20424;-85
2023/10/25 04:52:23;;;;;;;0.10;0.10;;;;;;;17.50;54.55;100236.75;4681969;30;20432;-87
2023/10/25 04:54:52;;;;;;;0.15;0.15;;;;;;;17.54;54.16;100240.59;4714456;30;20825;-85
2023/10/25 04:57:20;;;;;;;0.20;0.20;;;;;;;17.26;55.13;100248.41;4686141;30;20752;-85
2023/10/25 05:00:12;;;;;;;0.82;0.82;;;;;;;16.88;56.11;100252.16;4699521;30;20423;-85
2023/10/25 05:02:39;;;;;;;0.30;0.30;;;;;;;16.84;55.98;100270.50;4675265;30;20421;-86
2023/10/25 05:05:13;;;;;;;0.20;0.20;;;;;;;16.65;56.22;100266.13;4713766;30;20819;-85
2023/10/25 05:08:00;;;;;;;0.35;0.35;;;;;;;16.48;56.65;100263.22;4726899;30;20443;-85
2023/10/25 05:10:53;;;;;;;0.25;0.25;;;;;;;16.38;56.83;100266.38;4705494;30;20430;-86
2023/10/25 05:13:35;;;;;;;0.30;0.30;;;;;;;16.49;56.44;100264.84;4719032;30;20420;-86
2023/10/25 05:16:01;;;;;;;1.20;1.10;;;;;;;16.67;55.76;100262.19;4703037;30;20453;-86
2023/10/25 05:18:34;;;;;;;0.35;0.35;;;;;;;16.80;55.40;100278.13;4723026;30;20447;-85
2023/10/25 05:21:03;;;;;;;0.20;0.20;;;;;;;16.80;55.06;100270.09;4734563;30;20455;-87
2023/10/25 05:23:37;;;;;;;0.15;0.15;;;;;;;16.82;55.26;100273.38;4735524;30;20435;-86
2023/10/25 05:26:21;;;;;;;0.10;0.10;;;;;;;16.95;54.81;100275.13;4745030;30;20512;-84
2023/10/25 05:28:55;;;;;;;0.10;0.10;;;;;;;16.99;54.59;100270.94;4737433;30;20459;-85
2023/10/25 05:31:26;;;;;;;0.20;0.20;;;;;;;17.07;54.38;100272.53;4728692;30;20473;-85
2023/10/25 05:36:44;;;;;;;0.40;0.40;;;;;;;16.67;55.51;100280.94;4748776;30;20416;-85
2023/10/25 05:39:29;;;;;;;0.13;0.13;;;;;;;16.51;55.95;100281.50;4744252;30;20421;-84
2023/10/25 05:42:12;;;;;;;0.35;0.35;;;;;;;16.61;55.69;100287.97;4736879;30;20490;-86
2023/10/25 05:44:42;;;;;;;0.20;0.20;;;;;;;16.49;56.12;100286.25;4751093;30;20430;-87
2023/10/25 05:47:10;;;;;;;0.10;0.10;;;;;;;16.63;55.60;100290.44;4720418;30;20448;-85
2023/10/25 05:49:38;;;;;;;0.10;0.10;;;;;;;16.81;55.19;100295.81;4715043;30;20419;-87
2023/10/25 05:52:19;;;;;;;0.43;0.43;;;;;;;16.56;55.55;100295.84;4737323;30;20423;-86
2023/10/25 05:54:45;;;;;;;0.10;0.10;;;;;;;16.51;56.00;100310.94;4740632;30;20511;-86
2023/10/25 05:57:17;;;;;;;0.25;0.25;;;;;;;16.49;56.11;100305.78;4728949;30;20415;-86
2023/10/25 05:59:47;;;;;;;1.20;0.50;;;;;;;16.55;55.91;100312.97;4744037;30;20415;-87
2023/10/25 06:02:14;;;;;;;0.13;0.13;;;;;;;16.78;55.27;100306.97;4719821;30;20812;-85
2023/10/25 06:04:47;;;;;;;0.20;0.20;;;;;;;16.81;55.10;100319.91;4738692;30;20428;-86
2023/10/25 06:07:17;;;;;;;0.80;0.70;;;;;;;16.75;55.19;100325.34;4726952;30;20445;-86
2023/10/25 06:09:58;;;;;;;0.80;0.50;;;;;;;16.71;55.13;100308.91;4731987;30;20747;-86
2023/10/25 06:12:26;;;;;;;0.17;0.17;;;;;;;16.57;55.20;100313.56;4737343;30;20535;-85
2023/10/25 06:14:57;;;;;;;3.00;0.73;;;;;;;16.43;55.88;100318.19;4735032;30;20499;-83
2023/10/25 06:17:27;;;;;;;0.50;0.50;;;;;;;16.41;55.84;100314.91;4739316;30;20505;-85
2023/10/25 06:20:07;;;;;;;0.20;0.20;;;;;;;16.33;56.04;100320.56;4753492;30;20438;-85
2023/10/25 06:22:43;;;;;;;0.63;0.63;;;;;;;16.25;56.10;100318.94;4745570;30;20427;-86
2023/10/25 06:25:34;;;;;;;0.60;0.50;;;;;;;16.28;56.31;100333.75;4742672;30;20433;-86
2023/10/25 06:28:03;;;;;;;0.40;0.40;;;;;;;16.39;55.99;100329.56;4752700;30;20439;-88
2023/10/25 06:30:28;;;;;;;0.35;0.35;;;;;;;16.41;55.82;100325.63;4754092;30;20431;-87
2023/10/25 06:38:19;;;;;;;0.40;0.40;;;;;;;16.66;55.56;100332.84;4774387;29;20461;-87
2023/10/25 06:40:47;;;;;;;1.45;1.35;;;;;;;16.73;55.45;100319.41;4773844;30;20870;-85
2023/10/25 06:43:16;;;;;;;0.52;0.52;;;;;;;16.85;55.19;100319.50;4758685;30;20438;-85
2023/10/25 06:45:48;;;;;;;0.20;0.20;;;;;;;16.96;55.08;100335.69;4746533;30;20514;-85
2023/10/25 06:48:23;;;;;;;0.32;0.32;;;;;;;17.05;54.95;100322.81;4733842;30;20533;-86
2023/10/25 06:50:54;;;;;;;0.10;0.10;;;;;;;17.16;54.78;100311.34;4769980;30;20418;-87
2023/10/25 06:53:25;;;;;;;0.30;0.30;;;;;;;17.25;54.79;100327.94;4771081;30;20422;-87
2023/10/25 06:55:57;;;;;;;0.20;0.20;;;;;;;17.24;54.88;100334.34;4769233;30;20432;-87
2023/10/25 06:58:26;;;;;;;0.28;0.28;;;;;;;17.33;54.67;100337.53;4741269;30;20453;-85
2023/10/25 07:00:57;;;;;;;1.05;1.05;;;;;;;17.46;54.51;100333.88;4756715;30;20434;-86
2023/10/25 07:03:47;;;;;;;0.27;0.20;;;;;;;17.68;54.13;100327.03;4741635;30;20433;-86
2023/10/25 07:06:18;;;;;;;0.13;0.13;;;;;;;17.82;53.83;100326.81;4754240;30;20828;-85
2023/10/25 07:08:58;;;;;;;0.20;0.20;;;;;;;17.89;53.69;100333.75;4732850;30;20976;-88
2023/10/25 07:11:25;;;;;;;0.38;0.38;;;;;;;17.68;54.03;100359.19;4730544;30;20457;-87
2023/10/25 07:13:52;;;;;;;0.30;0.30;;;;;;;17.22;54.81;100459.66;4732202;30;20418;-88
2023/10/25 07:16:23;;;;;;;0.40;0.40;;;;;;;17.05;55.91;100439.81;4760508;30;20434;-86
2023/10/25 07:19:10;;;;;;;0.45;0.35;;;;;;;17.47;54.81;100423.97;4746048;30;20433;-86
2023/10/25 07:21:41;;;;;;;0.63;0.63;;;;;;;17.34;54.99;100452.53;4757579;30;20422;-88
2023/10/25 07:24:09;;;;;;;0.60;0.60;;;;;;;17.50;55.02;100431.53;4757387;30;20437;-88
2023/10/25 07:26:50;;;;;;;0.90;0.90;;;;;;;17.45;55.72;100453.66;4771913;30;20441;-87
2023/10/25 07:29:20;;;;;;;0.20;0.20;;;;;;;17.52;55.88;100430.28;4721836;30;20441;-87
2023/10/25 07:31:48;;;;;;;0.45;0.45;;;;;;;17.92;54.89;100429.84;4786550;30;20422;-84
2023/10/25 07:34:22;;;;;;;0.40;0.40;;;;;;;18.24;54.36;100418.91;4771659;30;20406;-87
2023/10/25 07:37:21;;;;;;;0.38;0.38;;;;;;;18.41;54.09;100421.75;4762962;30;20466;-86
2023/10/25 07:40:10;;;;;;;0.10;0.10;;;;;;;18.51;53.80;100437.28;4754538;30;20430;-86
2023/10/25 07:42:41;;;;;;;0.20;0.20;;;;;;;18.60;53.59;100419.84;4753525;30;20415;-86
2023/10/25 07:45:13;;;;;;;0.22;0.22;;;;;;;18.49;52.97;100440.22;4756255;30;20416;-87
2023/10/25 07:47:40;;;;;;;0.20;0.20;;;;;;;18.59;52.97;100428.94;4741510;30;20432;-85
2023/10/25 07:50:34;;;;;;;0.80;0.30;;;;;;;18.80;52.43;100430.25;4728274;30;20427;-86
2023/10/25 07:53:08;;;;;;;0.30;0.30;;;;;;;18.99;52.25;100435.56;4754442;30;20430;-87
2023/10/25 07:55:34;;;;;;;0.15;0.15;;;;;;;18.94;52.44;100436.25;4742295;30;20465;-87
2023/10/25 07:58:04;;;;;;;0.20;0.20;;;;;;;19.00;52.17;100434.53;4706385;30;20429;-87
2023/10/25 08:00:34;;;;;;;0.10;0.10;;;;;;;18.99;52.02;100428.31;4720016;30;20430;-86
2023/10/25 08:03:12;;;;;;;1.00;0.95;;;;;;;19.24;51.63;100414.63;4721233;30;20443;-85
2023/10/25 08:05:38;;;;;;;0.20;0.20;;;;;;;19.48;50.76;100417.31;4719778;30;20440;-84
2023/10/25 08:08:07;;;;;;;0.13;0.13;;;;;;;19.72;50.14;100423.47;4720021;30;20441;-86
2023/10/25 08:10:35;;;;;;;0.20;0.20;;;;;;;20.08;49.75;100423.38;4725037;30;20459;-84
2023/10/25 08:13:01;;;;;;;0.75;0.75;;;;;;;20.23;49.35;100411.00;4720866;30;20430;-85
2023/10/25 08:15:26;;;;;;;0.20;0.20;;;;;;;20.34;49.04;100413.91;4730668;30;20424;-86
2023/10/25 08:17:56;;;;;;;0.67;0.67;;;;;;;20.48;48.35;100415.22;4743697;30;20443;-85
2023/10/25 08:20:25;;;;;;;0.50;0.50;;;;;;;20.58;47.16;100404.63;4736975;30;21016;-86
2023/10/25 08:22:53;;;;;;;1.00;0.80;;;;;;;20.57;46.44;100394.91;4735551;30;20430;-86
2023/10/25 08:25:35;;;;;;;0.73;0.73;;;;;;;20.86;46.67;100396.75;4749068;30;20427;-86
2023/10/25 08:28:20;;;;;;;0.10;0.10;;;;;;;21.02;45.37;100400.50;4722007;30;20455;-85
2023/10/25 08:30:50;;;;;;;0.20;0.20;;;;;;;20.96;44.70;100395.03;4732663;30;20410;-85
2023/10/25 08:33:16;;;;;;;0.20;0.20;;;;;;;21.10;44.93;100391.97;4716395;30;20441;-86
2023/10/25 08:35:44;;;;;;;0.20;0.20;;;;;;;21.36;44.68;100399.34;4730274;30;20415;-87
2023/10/25 08:38:10;;;;;;;0.30;0.30;;;;;;;21.49;44.55;100405.47;4751113;30;20959;-86
2023/10/25 08:40:40;;;;;;;0.20;0.20;;;;;;;21.45;43.79;100404.31;4742940;30;20879;-86
2023/10/25 08:43:06;;;;;;;0.20;0.20;;;;;;;21.55;43.73;100401.75;4744662;30;20485;-87
2023/10/25 08:45:35;;;;;;;0.20;0.20;;;;;;;21.79;43.45;100405.03;4736797;30;20454;-87
2023/10/25 08:48:04;;;;;;;0.30;0.30;;;;;;;21.63;42.84;100393.25;4737169;30;20483;-87
2023/10/25 08:50:32;;;;;;;0.17;0.17;;;;;;;21.86;42.76;100400.25;4736308;30;20812;-86
2023/10/25 08:52:59;;;;;;;0.25;0.25;;;;;;;21.91;42.67;100407.59;4736607;30;20892;-87
2023/10/25 08:55:24;;;;;;;0.10;0.10;;;;;;;22.07;42.61;100389.69;4735784;30;20982;-87
2023/10/25 08:57:56;;;;;;;1.30;0.65;;;;;;;22.13;42.77;100391.38;4739196;30;20420;-86
2023/10/25 09:00:28;;;;;;;0.30;0.30;;;;;;;22.15;42.28;100383.84;4739055;30;20512;-87
2023/10/25 09:02:54;;;;;;;0.10;0.10;;;;;;;22.12;42.03;100389.72;4754594;30;20504;-87
2023/10/25 09:05:19;;;;;;;0.30;0.30;;;;;;;22.30;42.08;100391.28;4737930;30;20888;-87
2023/10/25 09:07:45;;;;;;;0.10;0.10;;;;;;;22.24;42.07;100381.50;4736090;30;20434;-87
2023/10/25 09:10:22;;;;;;;0.40;0.20;;;;;;;22.30;42.08;100389.41;4741858;30;20439;-89
2023/10/25 09:12:49;;;;;;;0.70;0.70;;;;;;;22.28;42.20;100375.34;4755922;30;20912;-88
2023/10/25 09:15:31;;;;;;;1.17;1.08;;;;;;;22.47;42.17;100375.78;4738966;30;20531;-87
2023/10/25 09:18:01;;;;;;;1.10;1.10;;;;;;;22.43;42.81;100366.53;4756009;30;20426;-88
2023/10/25 09:20:30;;;;;;;0.70;0.50;;;;;;;22.51;42.75;100374.19;4754131;30;20467;-87
2023/10/25 09:23:18;;;;;;;0.10;0.10;;;;;;;22.67;42.75;100367.03;4755906;30;20408;-86
2023/10/25 09:25:50;;;;;;;2.15;0.88;;;;;;;22.64;43.17;100354.03;4754413;30;20427;-86
2023/10/25 09:28:28;;;;;;;1.90;0.90;;;;;;;22.54;43.66;100362.03;4719129;30;20452;-86
2023/10/25 09:31:00;;;;;;;0.75;0.75;;;;;;;22.69;43.33;100356.75;4708410;30;20413;-86
2023/10/25 09:33:30;;;;;;;0.30;0.30;;;;;;;22.81;42.86;100351.16;4730019;30;20421;-90
2023/10/25 09:35:57;;;;;;;1.98;1.15;;;;;;;22.80;43.06;100356.84;4692865;30;20972;-87
2023/10/25 09:38:25;;;;;;;0.73;0.73;;;;;;;22.74;43.63;100345.16;4735737;30;21043;-86
2023/10/25 09:40:51;;;;;;;0.50;0.50;;;;;;;22.67;43.88;100342.72;4721860;30;20421;-87
2023/10/25 09:43:24;;;;;;;0.30;0.30;;;;;;;22.71;44.39;100343.81;4721119;30;20433;-86
2023/10/25 09:45:56;;;;;;;0.20;0.20;;;;;;;22.83;44.03;100354.44;4722586;30;20413;-87
2023/10/25 09:48:22;;;;;;;0.40;0.40;;;;;;;22.99;44.11;100332.88;4720470;30;20437;-87
2023/10/25 09:51:06;;;;;;;0.10;0.10;;;;;;;23.35;42.78;100319.56;4721398;30;20428;-86
2023/10/25 09:53:37;;;;;;;0.60;0.50;;;;;;;23.50;42.99;100321.50;4719546;30;20413;-86
2023/10/25 09:56:04;;;;;;;0.80;0.80;;;;;;;23.22;43.40;100315.47;4717900;30;20961;-86
2023/10/25 09:58:35;;;;;;;0.50;0.47;;;;;;;23.14;43.55;100308.69;4735138;30;20424;-85
2023/10/25 10:01:03;;;;;;;0.77;0.77;;;;;;;23.17;44.18;100323.56;4757767;30;20484;-85
2023/10/25 10:03:49;;;;;;;0.55;0.55;;;;;;;23.23;43.92;100312.50;4758182;30;20416;-86
2023/10/25 10:06:53;;;;;;;0.30;0.30;;;;;;;23.25;43.86;100307.63;4754589;30;20909;-86
2023/10/25 10:09:37;;;;;;;0.10;0.10;;;;;;;23.50;43.44;100318.81;4741698;30;20419;-88
2023/10/25 10:12:08;;;;;;;0.10;0.10;;;;;;;23.84;41.39;100306.47;4758505;30;20792;-87
2023/10/25 10:14:38;;;;;;;0.20;0.20;;;;;;;23.82;42.17;100310.53;4755366;30;20490;-88
2023/10/25 10:17:10;;;;;;;0.13;0.13;;;;;;;23.88;42.35;100301.34;4757146;30;20443;-86
2023/10/25 10:19:42;;;;;;;0.90;0.40;;;;;;;23.79;43.05;100300.22;4755826;30;20450;-86
2023/10/25 10:22:13;;;;;;;0.10;0.10;;;;;;;23.81;43.25;100298.09;4760798;30;20911;-86
2023/10/25 10:24:43;;;;;;;0.10;0.10;;;;;;;24.01;42.69;100279.16;4766228;30;20404;-86
2023/10/25 10:27:24;;;;;;;0.10;0.10;;;;;;;24.08;42.92;100291.63;4756150;30;20428;-86
2023/10/25 10:29:53;;;;;;;0.10;0.10;;;;;;;24.32;42.43;100289.97;4758303;30;20450;-86
2023/10/25 10:32:21;;;;;;;0.30;0.30;;;;;;;24.26;42.44;100277.53;4755453;30;20939;-86
2023/10/25 10:34:58;;;;;;;0.10;0.10;;;;;;;24.53;41.96;100279.97;4741153;30;20424;-87
2023/10/25 10:37:30;;;;;;;0.20;0.20;;;;;;;24.82;41.31;100270.41;4755937;30;20450;-86
2023/10/25 10:39:55;;;;;;;0.25;0.25;;;;;;;24.98;40.87;100267.34;4724254;30;20613;-86
2023/10/25 10:42:30;;;;;;;0.10;0.10;;;;;;;25.09;39.87;100261.91;4741365;30;20930;-90
2023/10/25 10:45:02;;;;;;;1.03;0.93;;;;;;;25.27;39.61;100257.78;4745390;30;20414;-86
2023/10/25 10:47:37;;;;;;;0.20;0.20;;;;;;;25.21;39.92;100246.13;4741057;30;20444;-87
2023/10/25 10:50:14;;;;;;;0.70;0.40;;;;;;;25.53;39.42;100239.44;4738133;30;20444;-86
2023/10/25 10:52:44;;;;;;;0.98;0.52;;;;;;;25.71;38.99;100246.09;4736798;30;20421;-86
2023/10/25 10:55:14;;;;;;;0.20;0.20;;;;;;;25.75;38.97;100225.47;4722274;30;20431;-87
2023/10/25 10:57:43;;;;;;;0.10;0.10;;;;;;;25.54;39.38;100228.28;4737669;30;20961;-85
2023/10/25 11:00:10;;;;;;;0.10;0.10;;;;;;;25.66;39.56;100229.84;4737184;30;20802;-87
2023/10/25 11:02:37;;;;;;;0.10;0.10;;;;;;;25.72;39.52;100236.88;4737592;30;20413;-86
2023/10/25 11:05:07;;;;;;;0.60;0.60;;;;;;;25.75;39.54;100239.03;4723907;30;20494;-86
2023/10/25 11:07:42;;;;;;;0.10;0.10;;;;;;;25.64;39.71;100230.16;4754757;30;20471;-87
2023/10/25 11:10:31;;;;;;;0.10;0.10;;;;;;;25.63;40.03;100225.00;4741933;30;20514;-86
2023/10/25 11:13:19;;;;;;;0.10;0.10;;;;;;;25.76;39.61;100217.00;4754184;30;20415;-86
2023/10/25 11:15:53;;;;;;;0.10;0.10;;;;;;;25.73;39.64;100217.59;4739530;30;20500;-87
2023/10/25 11:18:26;;;;;;;0.30;0.30;;;;;;;25.93;39.12;100232.94;4753691;30;20948;-88
2023/10/25 11:21:14;;;;;;;0.28;0.28;;;;;;;25.78;39.41;100226.78;4755547;30;21066;-87
2023/10/25 11:23:42;;;;;;;0.30;0.30;;;;;;;25.79;39.18;100231.13;4760511;30;20479;-88
2023/10/25 11:26:13;;;;;;;0.10;0.10;;;;;;;25.85;39.08;100219.91;4748703;30;20420;-88
2023/10/25 11:28:41;;;;;;;0.10;0.10;;;;;;;25.87;38.88;100225.88;4755434;30;20438;-88
2023/10/25 11:31:07;;;;;;;0.10;0.10;;;;;;;25.91;39.07;100221.50;4754707;30;20416;-88
2023/10/25 11:33:45;;;;;;;0.20;0.20;;;;;;;25.93;38.99;100227.50;4774403;30;20881;-86
2023/10/25 11:36:14;;;;;;;0.10;0.10;;;;;;;25.97;38.75;100216.06;4761119;30;20408;-87
2023/10/25 11:38:44;;;;;;;0.40;0.40;;;;;;;25.99;38.46;100222.84;4766320;29;20438;-86
2023/10/25 11:41:17;;;;;;;0.10;0.10;;;;;;;25.97;38.71;100210.66;4795319;29;20414;-90
2023/10/25 11:43:45;;;;;;;0.10;0.10;;;;;;;26.05;38.49;100196.44;4759307;30;20484;-88
2023/10/25 11:46:14;;;;;;;0.20;0.20;;;;;;;26.18;38.46;100200.38;4753095;30;20415;-88
2023/10/25 11:48:40;;;;;;;0.32;0.32;;;;;;;26.11;38.34;100181.72;4742037;30;20460;-88
2023/10/25 11:51:06;;;;;;;0.40;0.40;;;;;;;26.08;38.67;100174.13;4744133;30;20415;-88
2023/10/25 11:53:32;;;;;;;0.20;0.20;;;;;;;26.10;38.78;100183.59;4743898;30;20483;-88
2023/10/25 11:56:00;;;;;;;0.20;0.20;;;;;;;26.09;38.92;100182.00;4755950;30;20442;-88
2023/10/25 11:58:32;;;;;;;0.20;0.20;;;;;;;26.01;38.91;100171.75;4740106;30;20499;-88
2023/10/25 12:01:04;;;;;;;0.20;0.20;;;;;;;26.12;38.59;100172.47;4741885;30;20427;-87
2023/10/25 12:03:31;;;;;;;0.30;0.30;;;;;;;26.16;38.57;100172.69;4756708;30;20415;-87
2023/10/25 12:08:59;;;;;;;0.20;0.20;;;;;;;26.11;38.80;100165.41;4751784;30;20460;-87
2023/10/25 12:11:27;;;;;;;0.15;0.15;;;;;;;26.08;39.38;100166.00;4752898;30;20415;-87
2023/10/25 12:13:53;;;;;;;0.30;0.30;;;;;;;26.20;39.04;100169.13;4753182;30;20495;-86
2023/10/25 12:16:24;;;;;;;1.10;0.50;;;;;;;26.25;39.06;100174.50;4754537;30;20416;-87
2023/10/25 12:18:49;;;;;;;0.85;0.35;;;;;;;26.34;39.24;100177.38;4756790;30;20420;-86
2023/10/25 12:21:15;;;;;;;0.10;0.10;;;;;;;26.34;38.76;100163.78;4756566;30;20539;-87
2023/10/25 12:23:41;;;;;;;0.08;0.08;;;;;;;26.34;38.64;100161.06;4751798;30;20622;-87
2023/10/25 12:26:08;;;;;;;0.10;0.10;;;;;;;26.39;38.71;100161.03;4753452;30;20550;-87
2023/10/25 12:28:37;;;;;;;0.15;0.15;;;;;;;26.47;38.46;100157.69;4753631;30;20424;-87
2023/10/25 12:31:04;;;;;;;0.10;0.10;;;;;;;26.55;38.56;100155.41;4754015;30;20485;-87
2023/10/25 12:33:32;;;;;;;0.30;0.20;;;;;;;26.39;38.52;100155.59;4769161;30;20466;-87
2023/10/25 12:36:00;;;;;;;0.20;0.20;;;;;;;26.48;38.42;100166.63;4759495;30;20416;-86
2023/10/25 12:38:27;;;;;;;0.10;0.10;;;;;;;26.55;38.68;100149.97;4757372;30;20431;-87
2023/10/25 12:40:53;;;;;;;0.20;0.20;;;;;;;26.47;38.83;100149.53;4754888;30;20415;-88
2023/10/25 12:43:18;;;;;;;0.10;0.10;;;;;;;26.45;38.83;100143.56;4753467;30;20504;-87
2023/10/25 12:45:44;;;;;;;0.60;0.60;;;;;;;26.53;38.76;100144.84;4753442;30;20407;-87
2023/10/25 12:48:09;;;;;;;0.20;0.20;;;;;;;26.51;38.69;100141.59;4757662;30;20432;-85
2023/10/25 12:50:43;;;;;;;0.30;0.30;;;;;;;26.53;38.75;100136.69;4753202;30;20419;-86
2023/10/25 12:53:12;;;;;;;0.40;0.30;;;;;;;26.45;39.08;100140.03;4753751;30;20412;-88
2023/10/25 12:55:38;;;;;;;0.60;0.60;;;;;;;26.62;38.78;100150.47;4754800;30;20908;-88
2023/10/25 12:58:06;;;;;;;0.10;0.10;;;;;;;26.58;38.44;100139.34;4740159;30;20473;-89
2023/10/25 13:00:31;;;;;;;0.20;0.20;;;;;;;26.62;38.26;100159.44;4755098;30;20423;-87
2023/10/25 13:02:59;;;;;;;0.20;0.20;;;;;;;26.57;38.46;100147.78;4762900;30;20720;-88
2023/10/25 13:05:25;;;;;;;0.10;0.10;;;;;;;26.64;38.58;100150.97;4758840;30;20931;-86
2023/10/25 13:07:51;;;;;;;0.20;0.20;;;;;;;26.59;38.19;100140.94;4755017;30;20443;-86
2023/10/25 13:10:17;;;;;;;0.10;0.10;;;;;;;26.59;38.42;100151.81;4753278;30;20431;-87
2023/10/25 13:12:43;;;;;;;0.10;0.10;;;;;;;26.57;38.75;100156.75;4753176;30;20415;-87
2023/10/25 13:15:09;;;;;;;0.10;0.10;;;;;;;26.60;38.49;100156.16;4738651;30;20518;-88
2023/10/25 13:17:38;;;;;;;0.10;0.10;;;;;;;26.55;38.35;100155.41;4754610;30;20419;-87
2023/10/25 13:20:06;;;;;;;0.13;0.13;;;;;;;26.59;38.26;100151.81;4752636;30;20490;-87
2023/10/25 13:22:33;;;;;;;0.22;0.22;;;;;;;26.63;38.25;100154.78;4756442;30;20824;-87
2023/10/25 13:24:59;;;;;;;0.10;0.10;;;;;;;26.63;38.47;100149.34;4753241;30;20412;-88
2023/10/25 13:27:27;;;;;;;0.10;0.10;;;;;;;26.66;38.10;100156.94;4755500;30;20504;-88
2023/10/25 13:29:55;;;;;;;0.10;0.10;;;;;;;26.64;38.01;100157.22;4755783;30;20464;-86
2023/10/25 13:32:26;;;;;;;0.45;0.45;;;;;;;26.64;38.01;100157.22;4756002;30;20518;-88
2023/10/25 13:34:56;;;;;;;0.10;0.10;;;;;;;26.63;37.97;100154.78;4756293;30;20426;-87
2023/10/25 13:37:22;;;;;;;0.20;0.20;;;;;;;26.66;38.00;100144.16;4757941;30;20426;-88
2023/10/25 13:39:49;;;;;;;0.20;0.20;;;;;;;26.73;37.79;100157.38;4756167;30;20404;-87
2023/10/25 13:42:15;;;;;;;0.20;0.20;;;;;;;26.66;38.02;100156.94;4756999;30;20506;-87
2023/10/25 13:44:41;;;;;;;0.20;0.20;;;;;;;26.58;37.91;100142.06;4755460;30;20939;-88
2023/10/25 13:47:09;;;;;;;0.10;0.10;;;;;;;26.55;38.05;100142.63;4755564;30;20438;-87
2023/10/25 13:49:37;;;;;;;0.17;0.17;;;;;;;26.52;38.10;100154.06;4754467;30;20423;-88
2023/10/25 13:52:06;;;;;;;0.10;0.10;;;;;;;26.51;37.98;100136.97;4753996;30;20420;-88
2023/10/25 13:54:37;;;;;;;0.50;0.50;;;;;;;26.45;38.04;100138.13;4753576;30;21070;-88
2023/10/25 13:57:03;;;;;;;0.30;0.30;;;;;;;26.40;38.10;100138.19;4754804;30;20412;-88
2023/10/25 13:59:28;;;;;;;0.30;0.30;;;;;;;26.45;38.06;100150.91;4755309;30;20411;-88
2023/10/25 14:01:54;;;;;;;0.33;0.33;;;;;;;26.42;37.87;100133.28;4755691;30;20424;-86
2023/10/25 14:04:23;;;;;;;0.30;0.30;;;;;;;26.42;37.83;100137.91;4759725;30;20415;-87
2023/10/25 14:06:54;;;;;;;0.20;0.20;;;;;;;26.37;37.89;100129.81;4741268;30;20436;-87
2023/10/25 14:09:20;;;;;;;0.10;0.10;;;;;;;26.44;37.56;100136.50;4744535;30;20466;-88
2023/10/25 14:11:46;;;;;;;0.15;0.15;;;;;;;26.48;37.83;100140.25;4745083;30;20468;-86
2023/10/25 14:14:13;;;;;;;0.10;0.10;;;;;;;26.24;37.48;100126.69;4724209;30;20430;-87
2023/10/25 14:16:43;;;;;;;0.10;0.10;;;;;;;26.19;37.66;100143.03;4725502;30;20436;-87
2023/10/25 14:19:10;;;;;;;0.35;0.15;;;;;;;26.28;37.59;100151.38;4716660;30;20423;-87
2023/10/25 14:21:39;;;;;;;0.20;0.20;;;;;;;26.27;37.49;100141.59;4730094;30;20898;-88
2023/10/25 14:24:06;;;;;;;0.17;0.17;;;;;;;26.29;37.17;100140.22;4735949;30;20414;-87
2023/10/25 14:26:33;;;;;;;0.20;0.20;;;;;;;26.14;37.37;100132.22;4710533;30;20481;-87
2023/10/25 14:29:02;;;;;;;0.65;0.65;;;;;;;26.06;37.55;100133.69;4729649;30;20421;-87
2023/10/25 14:31:50;;;;;;;0.30;0.30;;;;;;;26.06;37.52;100135.59;4736916;30;20405;-88
2023/10/25 14:34:17;;;;;;;0.20;0.20;;;;;;;25.91;36.97;100133.78;4736241;30;20474;-84
2023/10/25 14:36:52;;;;;;;0.10;0.10;;;;;;;25.93;36.42;100135.16;4716944;30;20527;-83
2023/10/25 14:39:21;;;;;;;0.10;0.10;;;;;;;25.69;34.69;100134.28;4731111;30;20491;-87
2023/10/25 14:41:57;;;;;;;0.10;0.10;;;;;;;25.55;34.94;100136.81;4748558;30;20507;-86
2023/10/25 14:44:25;;;;;;;0.10;0.10;;;;;;;25.57;34.95;100140.09;4736270;30;20933;-83
2023/10/25 14:46:51;;;;;;;0.20;0.20;;;;;;;25.38;34.58;100142.66;4703722;30;20449;-82
2023/10/25 14:49:18;;;;;;;0.20;0.20;;;;;;;25.32;34.65;100147.31;4741311;30;20410;-82
2023/10/25 14:51:43;;;;;;;9.00;0.80;;;;;;;25.37;35.10;100155.44;4718080;30;20432;-82
2023/10/25 14:54:14;;;;;;;0.10;0.10;;;;;;;25.25;35.37;100149.56;4736113;30;20439;-85